Time;durP1;ratioP1;P1;durP2;ratioP2;P2;SDS_P1;SDS_P2;PMS_P1;PMS_P2;Temp;Humidity;BMP_temperature;BMP_pressure;BME280_temperature;BME280_humidity;BME280_pressure;Samples;Min_cycle;Max_cycle;Signal;HPM_P1;HPM_P2
2023/01/30 00:01:28;;;;;;;6.35;5.22;;;;;;;2.76;100.00;101599.91;6117358;23;20448;-73
2023/01/30 00:03:54;;;;;;;5.28;4.90;;;;;;;2.71;100.00;101571.41;6123830;23;20083;-72
2023/01/30 00:06:22;;;;;;;6.10;5.50;;;;;;;2.52;100.00;101534.38;6147500;23;20096;-73
2023/01/30 00:08:49;;;;;;;5.97;5.65;;;;;;;2.40;100.00;101496.44;6144508;23;20092;-72
2023/01/30 00:11:18;;;;;;;4.53;4.13;;;;;;;1.46;100.00;101353.66;6134173;23;20017;-74
2023/01/30 00:13:46;;;;;;;10.32;5.25;;;;;;;2.30;100.00;101497.34;6116441;23;20301;-74
2023/01/30 00:16:13;;;;;;;7.43;5.70;;;;;;;2.85;100.00;101573.94;6141732;23;20066;-74
2023/01/30 00:18:40;;;;;;;5.57;4.90;;;;;;;2.21;100.00;101474.09;6172005;23;20032;-72
2023/01/30 00:21:10;;;;;;;6.90;5.82;;;;;;;2.78;100.00;101549.75;6146195;23;20017;-73
2023/01/30 00:23:37;;;;;;;5.32;4.88;;;;;;;2.30;100.00;101465.41;6176376;23;20020;-73
2023/01/30 00:26:05;;;;;;;5.35;5.00;;;;;;;2.95;100.00;101561.78;6121036;23;20039;-73
2023/01/30 00:28:32;;;;;;;7.47;5.93;;;;;;;2.73;100.00;101499.69;6170245;23;21107;-73
2023/01/30 00:30:58;;;;;;;7.22;4.68;;;;;;;3.00;100.00;101555.66;6146674;23;20025;-75
2023/01/30 00:33:26;;;;;;;5.65;5.07;;;;;;;3.07;100.00;101553.06;6139775;23;20609;-73
2023/01/30 00:35:54;;;;;;;4.57;4.28;;;;;;;2.50;100.00;101449.75;6118710;23;20029;-75
2023/01/30 00:38:22;;;;;;;4.30;3.80;;;;;;;3.19;100.00;101548.63;6154699;23;20024;-73
2023/01/30 00:40:49;;;;;;;9.32;4.50;;;;;;;3.16;100.00;101545.19;6173564;23;20025;-73
2023/01/30 00:48:57;;;;;;;4.18;3.97;;;;;;;3.16;100.00;101517.50;6144618;23;20408;-74
2023/01/30 00:51:23;;;;;;;9.60;5.15;;;;;;;3.15;100.00;101513.22;6143659;23;20070;-73
2023/01/30 00:53:50;;;;;;;5.88;5.38;;;;;;;2.75;100.00;101471.19;6173630;23;20048;-73
2023/01/30 00:56:16;;;;;;;6.13;5.63;;;;;;;2.94;100.00;101464.13;6142188;23;20025;-73
2023/01/30 00:58:42;;;;;;;4.47;4.15;;;;;;;2.46;100.00;101365.16;6170549;23;20455;-75
2023/01/30 01:01:09;;;;;;;4.93;4.60;;;;;;;2.98;100.00;101460.63;6147266;23;20041;-72
2023/01/30 01:03:35;;;;;;;6.72;6.03;;;;;;;3.14;100.00;101480.34;6141397;23;20037;-72
2023/01/30 01:06:02;;;;;;;5.93;5.45;;;;;;;3.20;100.00;101479.44;6170456;23;20024;-74
2023/01/30 01:08:28;;;;;;;5.75;5.25;;;;;;;2.93;100.00;101439.94;6139569;23;20098;-74
2023/01/30 01:10:55;;;;;;;5.97;5.53;;;;;;;1.93;100.00;101258.53;6171636;23;20020;-73
2023/01/30 01:13:21;;;;;;;8.63;6.57;;;;;;;3.35;100.00;101457.69;6145619;23;20079;-73
2023/01/30 01:15:49;;;;;;;9.07;4.80;;;;;;;1.87;100.00;101256.84;6172845;23;20131;-73
2023/01/30 01:18:15;;;;;;;6.53;5.35;;;;;;;3.02;100.00;101419.97;6148390;23;20050;-74
2023/01/30 01:20:41;;;;;;;6.30;5.68;;;;;;;3.14;100.00;101430.22;6146190;23;20032;-74
2023/01/30 01:23:09;;;;;;;5.05;4.65;;;;;;;3.32;100.00;101457.72;6120946;23;20082;-72
2023/01/30 01:25:36;;;;;;;7.72;6.47;;;;;;;2.78;100.00;101368.31;6138383;23;20017;-73
2023/01/30 01:28:03;;;;;;;7.32;6.57;;;;;;;3.27;100.00;101420.56;6152496;23;20037;-73
2023/01/30 01:30:29;;;;;;;8.63;5.70;;;;;;;3.43;100.00;101453.28;6141301;23;20029;-75
2023/01/30 01:32:56;;;;;;;5.93;5.03;;;;;;;2.91;100.00;101363.03;6142859;23;20099;-74
2023/01/30 01:35:22;;;;;;;6.57;5.97;;;;;;;3.37;100.00;101428.25;6142476;23;20029;-73
2023/01/30 01:37:53;;;;;;;8.98;5.78;;;;;;;3.29;100.00;101421.44;6149719;23;20024;-75
2023/01/30 01:43:15;;;;;;;5.57;5.07;;;;;;;3.50;100.00;101447.16;6179558;23;20035;-73
2023/01/30 01:45:43;;;;;;;5.55;5.05;;;;;;;3.54;100.00;101442.78;6119927;23;20020;-75
2023/01/30 01:48:26;;;;;;;6.30;5.65;;;;;;;2.33;100.00;101248.69;6154404;23;20084;-75
2023/01/30 01:51:01;;;;;;;7.07;6.35;;;;;;;3.53;100.00;101446.28;6150402;23;20157;-74
2023/01/30 01:53:32;;;;;;;8.65;6.85;;;;;;;3.04;100.00;101359.44;6145736;23;20025;-73
2023/01/30 01:56:01;;;;;;;4.80;4.50;;;;;;;3.35;100.00;101405.81;6164875;23;20089;-73
2023/01/30 01:58:41;;;;;;;6.50;5.88;;;;;;;3.32;100.00;101404.09;6141222;23;20017;-73
2023/01/30 02:01:07;;;;;;;4.40;4.07;;;;;;;3.18;100.00;101380.88;6171699;23;20468;-75
2023/01/30 02:03:40;;;;;;;7.63;6.15;;;;;;;3.31;100.00;101427.47;6144437;23;20028;-74
2023/01/30 02:06:07;;;;;;;6.82;4.93;;;;;;;3.13;100.00;101361.94;6169668;23;20024;-74
2023/01/30 02:08:38;;;;;;;5.03;4.70;;;;;;;3.58;100.00;101427.16;6144476;23;20074;-74
2023/01/30 02:11:28;;;;;;;5.75;5.13;;;;;;;3.62;100.00;101427.13;6171526;23;20020;-73
2023/01/30 02:13:56;;;;;;;6.95;6.30;;;;;;;3.19;100.00;101338.53;6140536;23;20020;-75
2023/01/30 02:16:22;;;;;;;7.63;5.00;;;;;;;3.42;100.00;101365.09;6146257;23;20025;-73
2023/01/30 02:18:49;;;;;;;7.72;6.78;;;;;;;3.31;100.00;101352.25;6144414;23;20259;-74
2023/01/30 02:21:34;;;;;;;6.88;5.70;;;;;;;3.68;100.00;101430.50;6135355;23;20028;-73
2023/01/30 02:24:26;;;;;;;6.13;5.55;;;;;;;3.67;100.00;101399.38;6143354;23;20088;-74
2023/01/30 02:27:17;;;;;;;6.95;5.10;;;;;;;3.63;100.00;101374.31;6139579;23;20029;-74
2023/01/30 02:30:01;;;;;;;6.63;5.93;;;;;;;3.58;100.00;101382.19;6145726;23;20055;-73
2023/01/30 02:32:37;;;;;;;10.52;5.95;;;;;;;3.57;100.00;101378.72;6109806;23;20085;-74
2023/01/30 02:35:27;;;;;;;4.85;4.45;;;;;;;3.65;100.00;101369.97;6145942;23;20099;-75
2023/01/30 02:38:00;;;;;;;9.50;5.25;;;;;;;3.66;100.00;101363.91;6141528;23;20494;-73
2023/01/30 02:40:39;;;;;;;4.68;4.30;;;;;;;2.52;100.00;101174.22;6153389;23;20012;-74
2023/01/30 02:43:56;;;;;;;6.03;5.55;;;;;;;3.67;100.00;101365.63;6166671;23;20020;-72
2023/01/30 02:46:30;;;;;;;12.93;6.03;;;;;;;3.53;100.00;101332.94;6019818;23;20054;-73
2023/01/30 02:49:10;;;;;;;5.03;4.70;;;;;;;3.23;100.00;101274.53;6162161;23;20028;-75
2023/01/30 02:51:38;;;;;;;5.40;4.90;;;;;;;3.46;100.00;101307.94;6133563;23;20058;-75
2023/01/30 02:54:06;;;;;;;10.27;5.50;;;;;;;3.65;100.00;101318.06;6144588;23;20009;-73
2023/01/30 02:56:55;;;;;;;5.25;4.85;;;;;;;3.67;100.00;101319.78;6113038;23;20032;-74
2023/01/30 02:59:26;;;;;;;4.63;4.30;;;;;;;3.23;100.00;101255.47;6152224;23;20017;-75
2023/01/30 03:02:13;;;;;;;11.55;5.85;;;;;;;3.73;100.00;101316.25;6133569;23;20088;-73
2023/01/30 03:05:02;;;;;;;6.25;5.75;;;;;;;3.73;100.00;101290.28;6141684;23;20045;-74
2023/01/30 03:07:42;;;;;;;5.97;5.60;;;;;;;3.53;100.00;101273.25;6140477;23;20721;-73
2023/01/30 03:10:12;;;;;;;8.32;5.53;;;;;;;3.81;100.00;101301.41;6143754;23;20021;-73
2023/01/30 03:13:10;;;;;;;4.93;4.53;;;;;;;3.83;100.00;101315.25;6161657;23;20031;-74
2023/01/30 03:15:44;;;;;;;6.80;6.05;;;;;;;3.48;100.00;101246.50;6142021;23;20115;-74
2023/01/30 03:18:10;;;;;;;5.53;5.22;;;;;;;3.90;100.00;101308.22;6170453;23;20027;-73
2023/01/30 03:20:39;;;;;;;5.18;4.78;;;;;;;3.94;100.00;101308.13;6143756;23;20032;-74
2023/01/30 03:23:06;;;;;;;5.43;5.03;;;;;;;3.35;100.00;101204.31;6172562;23;20065;-75
2023/01/30 03:25:35;;;;;;;5.80;5.30;;;;;;;3.49;100.00;101230.06;6141514;23;20034;-74
2023/01/30 03:28:03;;;;;;;5.60;5.25;;;;;;;3.94;100.00;101284.75;6144830;23;20093;-72
2023/01/30 03:30:30;;;;;;;8.38;5.18;;;;;;;3.51;100.00;101220.53;6105133;23;20447;-74
2023/01/30 03:32:56;;;;;;;6.20;5.70;;;;;;;3.70;100.00;101277.34;6165321;23;20310;-73
2023/01/30 03:35:23;;;;;;;4.40;4.03;;;;;;;4.04;100.00;101284.63;6142718;23;20028;-73
2023/01/30 03:37:49;;;;;;;6.10;5.63;;;;;;;3.64;100.00;101223.78;6155529;23;20072;-74
2023/01/30 03:40:17;;;;;;;5.18;4.82;;;;;;;3.99;100.00;101284.72;6146667;23;20587;-73
2023/01/30 03:42:43;;;;;;;5.50;5.10;;;;;;;3.76;100.00;101243.50;6172992;23;20028;-76
2023/01/30 03:45:10;;;;;;;4.72;4.40;;;;;;;4.02;100.00;101271.66;6143205;23;20044;-74
2023/01/30 03:47:37;;;;;;;8.43;7.03;;;;;;;3.97;100.00;101282.13;6140358;23;20230;-75
2023/01/30 03:50:04;;;;;;;4.80;4.50;;;;;;;3.62;100.00;101197.00;6123328;23;20009;-75
2023/01/30 03:52:30;;;;;;;5.63;5.22;;;;;;;2.77;100.00;101050.41;6121968;23;20032;-74
2023/01/30 03:54:56;;;;;;;7.65;5.40;;;;;;;3.11;100.00;101109.56;6165681;23;20015;-74
2023/01/30 03:57:23;;;;;;;4.85;4.53;;;;;;;3.97;100.00;101261.34;6119623;23;20583;-74
2023/01/30 03:59:51;;;;;;;5.93;5.22;;;;;;;3.58;100.00;101170.22;6155262;23;20295;-73
2023/01/30 04:02:22;;;;;;;5.60;5.13;;;;;;;3.78;100.00;101202.81;6149250;23;20079;-74
2023/01/30 04:04:48;;;;;;;6.28;5.45;;;;;;;3.68;100.00;101185.66;6166033;23;20477;-73
2023/01/30 04:07:15;;;;;;;6.53;5.03;;;;;;;3.94;100.00;101203.41;6147669;23;20013;-73
2023/01/30 04:09:44;;;;;;;5.63;4.93;;;;;;;3.52;100.00;101118.41;6142187;23;20032;-75
2023/01/30 04:12:10;;;;;;;7.30;6.20;;;;;;;3.55;100.00;101123.56;6148492;23;20017;-75
2023/01/30 04:14:36;;;;;;;9.52;6.28;;;;;;;4.13;100.00;101227.31;6140959;23;20643;-73
2023/01/30 04:17:03;;;;;;;6.55;5.60;;;;;;;3.79;100.00;101168.19;6156002;23;20077;-73
2023/01/30 04:19:29;;;;;;;5.43;4.78;;;;;;;4.11;100.00;101218.69;6144718;23;20024;-73
2023/01/30 04:21:55;;;;;;;6.90;5.05;;;;;;;4.15;100.00;101229.03;6169826;23;20093;-73
2023/01/30 04:24:22;;;;;;;5.15;4.70;;;;;;;2.78;100.00;100997.69;6147079;23;20418;-73
2023/01/30 04:26:51;;;;;;;6.68;6.15;;;;;;;3.33;100.00;101091.94;6173584;23;20031;-74
2023/01/30 04:29:17;;;;;;;6.40;5.80;;;;;;;3.73;100.00;101139.72;6135757;23;20036;-73
2023/01/30 04:31:44;;;;;;;5.97;5.53;;;;;;;4.19;100.00;101219.44;6173333;23;20025;-72
2023/01/30 04:34:10;;;;;;;5.28;4.90;;;;;;;3.68;100.00;101131.16;6150103;23;21599;-75
2023/01/30 04:36:40;;;;;;;7.88;5.78;;;;;;;3.56;100.00;101114.88;6121691;23;20019;-74
2023/01/30 04:39:06;;;;;;;5.72;5.25;;;;;;;4.19;100.00;101198.66;6123368;23;20028;-73
2023/01/30 04:41:32;;;;;;;10.13;5.55;;;;;;;4.09;100.00;101197.09;6146321;23;20021;-74
2023/01/30 04:43:59;;;;;;;7.85;6.45;;;;;;;3.07;100.00;101024.91;6143974;23;20009;-73
2023/01/30 04:46:25;;;;;;;6.07;4.78;;;;;;;3.87;100.00;101149.84;6145649;23;20080;-74
2023/01/30 04:48:52;;;;;;;4.75;4.35;;;;;;;3.81;100.00;101150.84;6139744;23;20196;-72
2023/01/30 04:51:18;;;;;;;6.63;6.13;;;;;;;3.89;100.00;101161.06;6144268;23;20793;-72
2023/01/30 04:53:44;;;;;;;6.85;6.18;;;;;;;3.40;100.00;101064.97;6168117;23;20024;-74
2023/01/30 04:56:11;;;;;;;7.18;6.50;;;;;;;4.19;100.00;101196.06;6113667;23;20074;-72
2023/01/30 04:58:37;;;;;;;5.72;5.32;;;;;;;3.47;100.00;101091.72;6158215;23;20032;-73
2023/01/30 05:01:13;;;;;;;5.55;5.13;;;;;;;4.18;100.00;101192.59;6132713;23;20094;-73
2023/01/30 05:03:40;;;;;;;8.25;5.38;;;;;;;4.17;100.00;101201.28;6139751;23;20042;-73
2023/01/30 05:06:06;;;;;;;9.45;6.22;;;;;;;4.22;100.00;101195.16;6171328;23;20017;-74
2023/01/30 05:08:33;;;;;;;5.80;5.40;;;;;;;4.17;100.00;101190.91;6144705;23;20403;-73
2023/01/30 05:10:59;;;;;;;5.95;5.43;;;;;;;3.71;100.00;101133.69;6151894;23;20045;-73
2023/01/30 05:13:25;;;;;;;5.75;5.25;;;;;;;3.50;100.00;101089.03;6147676;23;20048;-73
2023/01/30 05:15:52;;;;;;;5.28;4.88;;;;;;;4.12;100.00;101182.31;6137450;23;20029;-74
2023/01/30 05:18:18;;;;;;;6.43;5.82;;;;;;;4.19;100.00;101193.47;6174581;23;20024;-73
2023/01/30 05:20:45;;;;;;;7.25;6.57;;;;;;;3.86;100.00;101128.25;6140122;23;20088;-72
2023/01/30 05:23:11;;;;;;;5.05;4.72;;;;;;;4.23;100.00;101181.25;6170480;23;20028;-76
2023/01/30 05:25:37;;;;;;;5.40;4.90;;;;;;;3.75;100.00;101081.72;6142424;23;20095;-72
2023/01/30 05:28:04;;;;;;;11.75;5.30;;;;;;;3.99;100.00;101119.34;6166909;23;20091;-73
2023/01/30 05:30:30;;;;;;;9.55;4.75;;;;;;;4.22;100.00;101149.25;6141809;23;20517;-73
2023/01/30 05:32:57;;;;;;;5.05;4.75;;;;;;;4.12;100.00;101129.50;6165425;23;20317;-73
2023/01/30 05:35:24;;;;;;;4.55;4.25;;;;;;;4.28;100.00;101145.66;6144044;23;20213;-73
2023/01/30 05:37:51;;;;;;;4.78;4.47;;;;;;;4.38;100.00;101166.25;6172683;23;20028;-73
2023/01/30 05:40:17;;;;;;;4.55;4.22;;;;;;;4.44;100.00;101175.66;6146445;23;20066;-73
2023/01/30 05:42:44;;;;;;;7.00;4.47;;;;;;;4.25;100.00;101140.53;6146750;23;20028;-72
2023/01/30 05:45:10;;;;;;;5.00;4.70;;;;;;;4.52;100.00;101170.34;6145025;23;20025;-73
2023/01/30 05:47:36;;;;;;;4.90;4.50;;;;;;;3.94;100.00;101084.81;6175394;23;20032;-72
2023/01/30 05:50:03;;;;;;;5.07;4.72;;;;;;;4.08;100.00;101100.13;6145996;23;20515;-74
2023/01/30 05:52:30;;;;;;;4.90;4.50;;;;;;;4.17;100.00;101110.38;6172475;23;20028;-73
2023/01/30 05:54:56;;;;;;;5.20;4.75;;;;;;;4.02;100.00;101076.88;6144221;23;20021;-74
2023/01/30 05:57:25;;;;;;;6.20;4.90;;;;;;;4.35;100.00;101140.34;6145014;23;20324;-73
2023/01/30 05:59:51;;;;;;;5.43;4.88;;;;;;;4.62;100.00;101150.22;6140481;23;20021;-73
2023/01/30 06:02:18;;;;;;;4.63;4.22;;;;;;;3.97;100.00;101026.78;6166270;23;20013;-73
2023/01/30 06:04:44;;;;;;;5.03;4.70;;;;;;;4.28;100.00;101091.13;6114587;23;20029;-74
2023/01/30 06:07:11;;;;;;;5.38;4.97;;;;;;;4.76;100.00;101156.84;6140191;23;20016;-71
2023/01/30 06:09:37;;;;;;;5.45;3.78;;;;;;;4.20;100.00;101060.09;6144067;23;20036;-73
2023/01/30 06:12:05;;;;;;;4.40;4.10;;;;;;;4.58;100.00;101126.03;6142147;23;20025;-73
2023/01/30 06:14:31;;;;;;;5.30;4.85;;;;;;;4.74;100.00;101182.00;6112834;23;20538;-74
2023/01/30 06:16:57;;;;;;;5.10;4.68;;;;;;;4.19;100.00;101084.38;6167314;23;20009;-72
2023/01/30 06:19:24;;;;;;;7.25;5.15;;;;;;;4.84;100.00;101161.88;6135762;23;20235;-73
2023/01/30 06:21:50;;;;;;;4.65;4.30;;;;;;;4.46;100.00;101108.94;6145824;23;20151;-73
2023/01/30 06:24:17;;;;;;;7.18;6.60;;;;;;;4.80;100.00;101171.47;6134527;23;20038;-73
2023/01/30 06:26:43;;;;;;;7.22;5.05;;;;;;;4.50;100.00;101125.31;6143433;23;20022;-73
2023/01/30 06:29:10;;;;;;;5.38;4.88;;;;;;;4.85;100.00;101200.00;6112138;23;20010;-73
2023/01/30 06:31:36;;;;;;;5.30;5.00;;;;;;;4.55;100.00;101150.34;6173332;23;20020;-73
2023/01/30 06:34:03;;;;;;;5.82;4.97;;;;;;;4.39;100.00;101123.78;6114540;23;20021;-73
2023/01/30 06:36:29;;;;;;;5.22;4.93;;;;;;;4.71;100.00;101158.69;6134601;23;20005;-73
2023/01/30 06:38:56;;;;;;;3.97;3.78;;;;;;;4.48;100.00;101127.09;6142520;23;20029;-72
2023/01/30 06:41:22;;;;;;;5.07;4.68;;;;;;;4.29;100.00;101085.00;6145946;23;20009;-72
2023/01/30 06:43:48;;;;;;;5.40;4.95;;;;;;;4.91;100.00;101199.88;6164655;23;20024;-72
2023/01/30 06:46:15;;;;;;;4.55;4.18;;;;;;;4.98;100.00;101195.41;6140482;23;20761;-73
2023/01/30 06:48:41;;;;;;;6.07;4.80;;;;;;;4.99;100.00;101195.38;6142154;23;20050;-72
2023/01/30 06:51:08;;;;;;;4.25;4.05;;;;;;;4.73;100.00;101148.22;6146039;23;20041;-72
2023/01/30 06:53:35;;;;;;;4.60;4.30;;;;;;;4.65;100.00;101145.81;6142989;23;20029;-72
2023/01/30 06:56:02;;;;;;;5.32;4.93;;;;;;;5.01;100.00;101208.31;6116013;23;20279;-73
2023/01/30 06:58:28;;;;;;;7.03;5.05;;;;;;;4.53;100.00;101140.84;6133501;23;20032;-72
2023/01/30 07:00:55;;;;;;;5.13;4.43;;;;;;;4.99;100.00;101221.38;6118540;23;20032;-72
2023/01/30 07:03:22;;;;;;;5.43;5.03;;;;;;;4.53;100.00;101139.13;6114130;23;20030;-72
2023/01/30 07:06:10;;;;;;;19.00;18.00;;;;;;;3.86;100.00;101037.38;6032196;23;20259;-72
2023/01/30 07:08:37;;;;;;;5.60;5.07;;;;;;;4.72;100.00;101177.72;6170856;23;20032;-73
2023/01/30 07:11:04;;;;;;;5.05;4.57;;;;;;;5.05;100.00;101230.81;6145935;23;20040;-74
2023/01/30 07:13:30;;;;;;;6.22;5.63;;;;;;;5.00;100.00;101222.22;6173263;23;20046;-72
2023/01/30 07:15:57;;;;;;;4.38;4.18;;;;;;;4.58;100.00;101162.41;6149448;23;20129;-73
2023/01/30 07:18:23;;;;;;;4.50;4.13;;;;;;;4.73;100.00;101187.22;6175389;23;20017;-72
2023/01/30 07:20:50;;;;;;;4.70;4.32;;;;;;;5.04;100.00;101236.88;6150254;23;20052;-72
2023/01/30 07:23:18;;;;;;;3.60;3.50;;;;;;;4.64;100.00;101153.63;6164713;23;20024;-73
2023/01/30 07:25:45;;;;;;;5.20;4.82;;;;;;;4.71;100.00;101171.69;6140529;23;20544;-74
2023/01/30 07:28:11;;;;;;;5.15;4.78;;;;;;;4.61;100.00;101154.56;6172840;23;20044;-74
2023/01/30 07:30:38;;;;;;;5.90;5.32;;;;;;;5.04;100.00;101215.22;6144576;23;20811;-71
2023/01/30 07:33:05;;;;;;;8.57;5.45;;;;;;;5.05;100.00;101225.63;6155543;23;20471;-72
2023/01/30 07:35:34;;;;;;;6.18;5.22;;;;;;;4.76;100.00;101185.44;6133661;23;20026;-71
2023/01/30 07:38:01;;;;;;;5.63;5.13;;;;;;;4.68;100.00;101169.13;6159883;23;20029;-71
2023/01/30 07:40:27;;;;;;;5.10;4.43;;;;;;;5.07;100.00;101217.75;6137519;23;20244;-71
2023/01/30 07:43:11;;;;;;;4.25;4.05;;;;;;;5.01;100.00;101213.53;6133657;23;20191;-71
2023/01/30 07:45:46;;;;;;;6.05;4.63;;;;;;;5.09;100.00;101226.38;6099932;23;20102;-70
2023/01/30 07:48:15;;;;;;;4.78;4.43;;;;;;;5.16;100.00;101238.38;6136014;23;20029;-71
2023/01/30 07:50:42;;;;;;;4.60;4.40;;;;;;;4.79;100.00;101182.78;6140884;23;20005;-72
2023/01/30 07:53:12;;;;;;;6.85;4.82;;;;;;;5.10;100.00;101226.34;6142414;23;20509;-70
2023/01/30 07:55:38;;;;;;;4.03;3.83;;;;;;;5.18;100.00;101234.00;6145078;23;20403;-72
2023/01/30 07:58:05;;;;;;;5.35;4.85;;;;;;;5.22;100.00;101237.41;6169187;23;20077;-72
2023/01/30 08:00:32;;;;;;;5.72;5.15;;;;;;;4.99;100.00;101208.38;6142185;23;20496;-71
2023/01/30 08:02:58;;;;;;;5.43;5.03;;;;;;;5.20;100.00;101238.28;6118912;23;20677;-71
2023/01/30 08:05:25;;;;;;;5.43;5.13;;;;;;;5.07;100.00;101209.94;6138676;23;20054;-70
2023/01/30 08:07:55;;;;;;;5.03;4.63;;;;;;;5.26;100.00;101234.69;6151752;23;20057;-71
2023/01/30 08:10:21;;;;;;;5.30;4.90;;;;;;;5.29;100.00;101244.16;6143877;23;20524;-71
2023/01/30 08:12:51;;;;;;;5.05;4.53;;;;;;;5.32;100.00;101239.75;6146623;23;20052;-70
2023/01/30 08:15:17;;;;;;;5.95;5.55;;;;;;;5.31;100.00;101247.59;6134765;23;20013;-71
2023/01/30 08:17:54;;;;;;;6.15;5.63;;;;;;;5.32;100.00;101246.72;6174260;23;20480;-72
2023/01/30 08:20:21;;;;;;;22.80;5.03;;;;;;;5.06;100.00;101234.25;6116791;23;20099;-70
2023/01/30 08:22:48;;;;;;;5.88;5.32;;;;;;;5.20;100.00;101247.84;6175223;23;20032;-69
2023/01/30 08:25:14;;;;;;;5.45;4.90;;;;;;;4.55;100.00;101145.16;6146368;23;20082;-72
2023/01/30 08:27:41;;;;;;;5.43;5.13;;;;;;;4.70;100.00;101172.56;6141788;23;20012;-71
2023/01/30 08:30:09;;;;;;;7.13;5.20;;;;;;;4.97;100.00;101212.75;6144152;23;20017;-72
2023/01/30 08:32:35;;;;;;;6.25;5.75;;;;;;;4.42;100.00;101129.81;6114341;23;20096;-72
2023/01/30 08:35:02;;;;;;;6.65;6.10;;;;;;;5.07;100.00;101239.44;6146073;23;20597;-72
2023/01/30 08:37:29;;;;;;;4.43;4.15;;;;;;;4.87;100.00;101200.84;6147188;23;20133;-72
2023/01/30 08:39:55;;;;;;;5.65;5.13;;;;;;;4.81;100.00;101198.34;6142482;23;20154;-71
2023/01/30 08:42:21;;;;;;;8.02;5.95;;;;;;;5.32;100.00;101259.75;6147961;23;20013;-71
2023/01/30 08:44:48;;;;;;;6.20;5.68;;;;;;;5.09;100.00;101232.47;6146410;23;20073;-71
2023/01/30 08:47:15;;;;;;;5.78;5.28;;;;;;;5.40;100.00;101270.84;6147065;23;20209;-71
2023/01/30 08:49:41;;;;;;;5.65;5.15;;;;;;;5.58;100.00;101272.19;6173509;23;20036;-72
2023/01/30 08:52:09;;;;;;;5.13;4.72;;;;;;;5.38;100.00;101218.81;6108889;23;20033;-71
2023/01/30 08:54:35;;;;;;;8.98;5.28;;;;;;;5.71;100.00;101260.63;6171759;23;20032;-72
2023/01/30 08:57:01;;;;;;;5.97;5.28;;;;;;;5.25;100.00;101173.16;6138862;23;20085;-71
2023/01/30 08:59:28;;;;;;;4.75;4.45;;;;;;;5.80;100.00;101286.44;6174616;23;20023;-72
2023/01/30 09:01:54;;;;;;;5.28;4.90;;;;;;;5.31;100.00;101172.13;6142279;23;20035;-72
2023/01/30 09:04:23;;;;;;;5.00;4.53;;;;;;;5.95;100.00;101286.97;6136738;23;20017;-72
2023/01/30 09:06:50;;;;;;;4.32;4.05;;;;;;;4.75;100.00;101064.13;6140848;23;20349;-74
2023/01/30 09:09:17;;;;;;;5.57;5.18;;;;;;;5.90;100.00;101214.13;6142029;23;20361;-74
2023/01/30 09:11:43;;;;;;;5.03;4.63;;;;;;;6.02;100.00;101240.81;6173108;23;20058;-72
2023/01/30 09:14:09;;;;;;;4.85;4.57;;;;;;;6.02;100.00;101230.41;6115247;23;20088;-73
2023/01/30 09:16:36;;;;;;;4.75;4.45;;;;;;;5.63;100.00;101178.34;6139540;23;20036;-72
2023/01/30 09:19:02;;;;;;;3.90;3.70;;;;;;;5.80;100.00;101208.28;6173160;23;20008;-73
2023/01/30 09:21:30;;;;;;;4.50;4.20;;;;;;;6.20;100.00;101276.84;6141662;23;20045;-71
2023/01/30 09:23:57;;;;;;;4.78;4.47;;;;;;;6.22;100.00;101250.75;6145012;23;20013;-72
2023/01/30 09:26:23;;;;;;;4.38;4.18;;;;;;;5.93;100.00;101206.25;6142498;23;20025;-72
2023/01/30 09:28:50;;;;;;;13.00;4.35;;;;;;;6.30;100.00;101244.44;6119700;23;20035;-73
2023/01/30 09:31:16;;;;;;;4.22;3.92;;;;;;;6.30;100.00;101251.41;6137271;23;20092;-72
2023/01/30 09:33:43;;;;;;;4.28;3.97;;;;;;;5.99;100.00;101234.78;6167235;23;20106;-71
2023/01/30 09:36:09;;;;;;;4.72;4.35;;;;;;;6.20;100.00;101253.38;6147473;23;20045;-71
2023/01/30 09:38:35;;;;;;;12.73;4.15;;;;;;;6.13;100.00;101242.28;6167992;23;20231;-74
2023/01/30 09:41:29;;;;;;;4.22;3.92;;;;;;;6.33;100.00;101286.06;6145681;23;20154;-74
2023/01/30 09:43:55;;;;;;;;;;;;;;;6.33;100.00;101283.44;6173532;23;20423;-73
2023/01/30 09:46:34;;;;;;;3.80;3.60;;;;;;;6.32;100.00;101271.31;6146147;23;19909;-72
2023/01/30 09:49:15;;;;;;;3.40;3.30;;;;;;;6.44;100.00;101279.75;6146106;23;20008;-74
2023/01/30 09:52:00;;;;;;;4.57;4.30;;;;;;;6.29;100.00;101241.88;6149022;23;20133;-72
2023/01/30 09:54:35;;;;;;;4.32;4.03;;;;;;;6.09;100.00;101222.38;6175378;23;20758;-73
2023/01/30 09:57:07;;;;;;;4.53;4.32;;;;;;;6.56;100.00;101287.25;6145198;23;20514;-72
2023/01/30 10:00:10;;;;;;;4.68;4.25;;;;;;;6.45;100.00;101294.47;6153006;23;20028;-73
2023/01/30 10:03:07;;;;;;;20.08;4.95;;;;;;;6.74;100.00;101281.53;6147146;23;20157;-72
2023/01/30 10:05:42;;;;;;;8.13;5.25;;;;;;;6.81;100.00;101274.38;6150047;23;20513;-72
2023/01/30 10:08:46;;;;;;;12.10;5.05;;;;;;;6.98;100.00;101279.16;6125216;23;20032;-71
2023/01/30 10:11:28;;;;;;;12.90;4.13;;;;;;;6.91;100.00;101275.00;6145967;23;20011;-72
2023/01/30 10:13:58;;;;;;;4.85;4.47;;;;;;;6.93;100.00;101265.38;6100355;23;20022;-71
2023/01/30 10:16:39;;;;;;;4.18;3.90;;;;;;;6.91;100.00;101272.38;6115804;23;20025;-72
2023/01/30 10:19:28;;;;;;;4.43;4.10;;;;;;;6.77;100.00;101271.00;6148235;23;20023;-72
2023/01/30 10:22:10;;;;;;;7.43;4.35;;;;;;;6.86;100.00;101276.88;6134880;23;20025;-71
2023/01/30 10:24:55;;;;;;;10.98;4.70;;;;;;;5.63;100.00;101082.00;6127822;23;20491;-71
2023/01/30 10:27:24;;;;;;;3.88;3.50;;;;;;;6.58;100.00;101270.66;6149363;23;20057;-72
2023/01/30 10:29:55;;;;;;;5.97;4.35;;;;;;;6.70;100.00;101290.34;6142832;23;20071;-73
2023/01/30 10:32:45;;;;;;;4.60;3.80;;;;;;;6.74;100.00;101280.69;6176884;23;20218;-70
2023/01/30 10:35:19;;;;;;;4.40;4.00;;;;;;;6.29;100.00;101214.03;6116868;23;20024;-71
2023/01/30 10:37:58;;;;;;;4.10;3.80;;;;;;;6.71;100.00;101260.72;6172001;23;20372;-73
2023/01/30 10:40:43;;;;;;;3.72;3.63;;;;;;;6.63;100.00;101264.44;6116895;23;20492;-72
2023/01/30 10:43:31;;;;;;;4.22;3.88;;;;;;;6.61;99.24;101264.47;6170439;23;20024;-69
2023/01/30 10:46:27;;;;;;;4.07;3.83;;;;;;;6.70;99.26;101266.00;6139529;23;20093;-71
2023/01/30 10:49:00;;;;;;;4.47;4.20;;;;;;;6.62;97.99;101242.75;6164756;23;20010;-71
2023/01/30 10:51:38;;;;;;;4.47;4.20;;;;;;;6.23;97.51;101179.47;6138094;23;20032;-72
2023/01/30 10:54:41;;;;;;;4.15;3.92;;;;;;;6.72;97.64;101270.28;6143222;23;20024;-72
2023/01/30 10:57:39;;;;;;;7.97;4.18;;;;;;;6.33;97.07;101207.84;6137758;23;20939;-72
2023/01/30 11:00:29;;;;;;;4.00;3.80;;;;;;;6.60;96.54;101273.22;6145004;23;20043;-71
2023/01/30 11:03:20;;;;;;;22.95;4.95;;;;;;;6.64;95.89;101269.63;6172052;23;20036;-73
2023/01/30 11:05:52;;;;;;;3.58;3.38;;;;;;;6.59;94.95;101253.25;6138097;23;20021;-70
2023/01/30 11:08:23;;;;;;;;;;;;;;;6.62;95.11;101254.94;6149410;23;20090;-75
2023/01/30 11:10:51;;;;;;;3.53;3.42;;;;;;;6.26;95.35;101205.47;6166306;23;19917;-73
2023/01/30 11:13:20;;;;;;;3.45;3.35;;;;;;;6.49;95.34;101238.75;6144746;23;20015;-71
2023/01/30 11:15:51;;;;;;;4.10;3.83;;;;;;;6.44;95.36;101235.41;6137278;23;20057;-71
2023/01/30 11:18:20;;;;;;;4.97;4.47;;;;;;;6.49;95.27;101252.63;6139772;23;20021;-73
2023/01/30 11:21:12;;;;;;;4.63;4.25;;;;;;;6.55;93.80;101246.41;6164462;23;20070;-74
2023/01/30 11:23:42;;;;;;;4.07;3.67;;;;;;;6.33;94.59;101226.09;6144334;23;20040;-73
2023/01/30 11:26:24;;;;;;;4.18;3.55;;;;;;;5.62;94.05;101115.00;6141679;23;20484;-77
2023/01/30 11:29:22;;;;;;;4.13;3.85;;;;;;;6.44;94.76;101253.66;6169708;23;20012;-71
2023/01/30 11:31:49;;;;;;;10.88;3.97;;;;;;;6.15;94.37;101195.31;6142183;23;20025;-72
2023/01/30 11:34:19;;;;;;;4.00;3.80;;;;;;;6.22;94.90;101183.00;6143439;23;20076;-73
2023/01/30 11:36:47;;;;;;;4.18;3.95;;;;;;;6.52;93.69;101223.03;6144178;23;20662;-73
2023/01/30 11:39:17;;;;;;;5.50;3.67;;;;;;;6.62;93.32;101239.28;6135081;23;20010;-71
2023/01/30 11:41:52;;;;;;;5.63;5.10;;;;;;;6.72;93.47;101241.59;6144193;23;20075;-70
2023/01/30 11:44:25;;;;;;;4.40;4.10;;;;;;;6.71;92.36;101224.22;6143700;23;20042;-73
2023/01/30 11:46:52;;;;;;;4.50;4.20;;;;;;;6.79;91.14;101232.72;6166365;23;20048;-69
2023/01/30 11:49:21;;;;;;;9.68;3.85;;;;;;;6.82;90.50;101228.31;6142643;23;20596;-74
2023/01/30 11:52:08;;;;;;;4.05;3.70;;;;;;;6.50;89.54;101177.88;6146663;23;20267;-70